Time;durP1;ratioP1;P1;durP2;ratioP2;P2;SDS_P1;SDS_P2;PMS_P1;PMS_P2;Temp;Humidity;BMP_temperature;BMP_pressure;BME280_temperature;BME280_humidity;BME280_pressure;Samples;Min_cycle;Max_cycle;Signal;HPM_P1;HPM_P2
2024/01/26 00:01:31;;;;;;;0.50;0.20;;;9.80;99.90;;;;;;5081050;28;20438;-59
2024/01/26 00:03:58;;;;;;;0.60;0.30;;;9.80;99.90;;;;;;5083564;28;20437;-59
2024/01/26 00:06:27;;;;;;;0.50;0.20;;;9.80;99.90;;;;;;5083739;28;20522;-59
2024/01/26 00:08:54;;;;;;;0.50;0.30;;;9.90;99.90;;;;;;5081443;28;20415;-60
2024/01/26 00:11:21;;;;;;;0.60;0.30;;;9.90;99.90;;;;;;5082257;28;20433;-61
2024/01/26 00:13:48;;;;;;;0.55;0.30;;;9.90;96.70;;;;;;5083166;28;20515;-61
2024/01/26 00:16:15;;;;;;;0.43;0.30;;;9.80;97.90;;;;;;5080760;28;20434;-59
2024/01/26 00:18:42;;;;;;;0.80;0.30;;;9.80;99.50;;;;;;5082356;28;20429;-59
2024/01/26 00:21:09;;;;;;;0.50;0.28;;;9.90;99.50;;;;;;5082738;28;20427;-59
2024/01/26 00:23:38;;;;;;;2.00;0.30;;;9.90;99.00;;;;;;5081384;28;20428;-60
2024/01/26 00:26:05;;;;;;;0.40;0.20;;;9.90;96.70;;;;;;5084070;28;20416;-59
2024/01/26 00:28:32;;;;;;;0.60;0.30;;;9.90;92.20;;;;;;5082574;28;20439;-60
2024/01/26 00:31:08;;;;;;;0.50;0.30;;;10.00;82.10;;;;;;5081944;28;20435;-60
2024/01/26 00:33:35;;;;;;;0.40;0.20;;;9.90;75.20;;;;;;5082348;28;20511;-59
2024/01/26 00:36:02;;;;;;;0.50;0.30;;;9.90;69.60;;;;;;5081200;28;20443;-60
2024/01/26 00:38:29;;;;;;;0.50;0.20;;;9.90;69.60;;;;;;5082780;28;20894;-60
2024/01/26 00:40:58;;;;;;;0.50;0.30;;;9.90;73.20;;;;;;5081433;28;20435;-61
2024/01/26 00:43:24;;;;;;;1.00;0.20;;;9.90;73.50;;;;;;5083146;28;20431;-60
2024/01/26 00:45:51;;;;;;;0.40;0.20;;;9.90;71.00;;;;;;5081319;28;20493;-60
2024/01/26 00:48:18;;;;;;;0.50;0.20;;;9.90;68.00;;;;;;5082524;28;20719;-61
2024/01/26 00:50:46;;;;;;;0.40;0.20;;;9.90;62.50;;;;;;5083662;28;20428;-60
2024/01/26 00:53:13;;;;;;;0.30;0.20;;;10.00;67.10;;;;;;5082340;28;20508;-60
2024/01/26 00:55:40;;;;;;;0.50;0.30;;;10.00;56.60;;;;;;5082255;28;20486;-60
2024/01/26 00:58:08;;;;;;;0.30;0.20;;;10.00;49.50;;;;;;5084253;28;20867;-60
2024/01/26 01:00:36;;;;;;;0.40;0.20;;;10.00;47.00;;;;;;5082158;28;20458;-60
2024/01/26 01:03:04;;;;;;;0.50;0.20;;;10.00;42.40;;;;;;5082378;28;20442;-60
2024/01/26 01:05:31;;;;;;;0.60;0.30;;;9.90;47.20;;;;;;5080051;28;20421;-60
2024/01/26 01:07:58;;;;;;;0.40;0.20;;;9.90;51.80;;;;;;5080773;28;20516;-60
2024/01/26 01:10:25;;;;;;;0.40;0.30;;;9.90;54.60;;;;;;5080175;28;20549;-60
2024/01/26 01:12:52;;;;;;;0.73;0.25;;;10.00;52.10;;;;;;5079586;28;20492;-59
2024/01/26 01:15:23;;;;;;;0.60;0.40;;;10.00;39.30;;;;;;5082657;28;20435;-59
2024/01/26 01:17:50;;;;;;;0.50;0.30;;;9.90;43.10;;;;;;5080602;28;20429;-59
2024/01/26 01:20:17;;;;;;;0.40;0.20;;;9.90;49.60;;;;;;5081643;28;20993;-60
2024/01/26 01:22:45;;;;;;;0.43;0.20;;;10.00;50.20;;;;;;5082119;28;20434;-59
2024/01/26 01:25:12;;;;;;;0.80;0.20;;;10.00;41.10;;;;;;5080566;28;20500;-60
2024/01/26 01:27:39;;;;;;;0.43;0.30;;;10.00;44.00;;;;;;5083050;28;20518;-59
2024/01/26 01:30:09;;;;;;;0.40;0.20;;;10.00;49.70;;;;;;5081086;28;20436;-59
2024/01/26 01:32:37;;;;;;;0.40;0.20;;;10.00;56.90;;;;;;5080711;28;20450;-59
2024/01/26 01:35:05;;;;;;;0.40;0.20;;;10.00;64.00;;;;;;5081219;28;20939;-58
2024/01/26 01:37:32;;;;;;;0.70;0.20;;;10.10;61.80;;;;;;5082032;28;20434;-59
2024/01/26 01:39:59;;;;;;;0.50;0.20;;;10.00;64.80;;;;;;5080083;28;20434;-60
2024/01/26 01:42:26;;;;;;;0.90;0.20;;;9.90;74.20;;;;;;5083680;28;20734;-59
2024/01/26 01:44:53;;;;;;;1.73;0.30;;;9.90;70.10;;;;;;5081606;28;20460;-59
2024/01/26 01:47:20;;;;;;;0.60;0.30;;;9.80;85.50;;;;;;5082016;28;20426;-59
2024/01/26 01:49:48;;;;;;;1.40;0.20;;;9.70;93.60;;;;;;5081077;28;20444;-59
2024/01/26 01:52:16;;;;;;;0.50;0.20;;;9.60;98.40;;;;;;5080596;28;20534;-59
2024/01/26 01:54:43;;;;;;;0.52;0.22;;;9.60;99.90;;;;;;5079207;28;20471;-59
2024/01/26 01:57:12;;;;;;;0.60;0.30;;;9.60;99.90;;;;;;5083368;28;20492;-58
2024/01/26 01:59:41;;;;;;;0.60;0.30;;;9.50;99.90;;;;;;5080223;28;20451;-59
2024/01/26 02:02:08;;;;;;;0.50;0.30;;;9.40;99.90;;;;;;5079847;28;20498;-59
2024/01/26 02:04:35;;;;;;;0.55;0.20;;;9.40;99.90;;;;;;5079516;28;20439;-59
2024/01/26 02:07:05;;;;;;;1.10;0.30;;;9.40;99.90;;;;;;5081534;28;20427;-59
2024/01/26 02:09:32;;;;;;;2.15;0.30;;;9.40;99.90;;;;;;5083884;28;20523;-59
2024/01/26 02:12:00;;;;;;;0.45;0.30;;;9.40;99.90;;;;;;5085450;28;20494;-59
2024/01/26 02:14:27;;;;;;;0.60;0.20;;;9.40;99.90;;;;;;5085109;28;20432;-59
2024/01/26 02:16:55;;;;;;;0.40;0.20;;;9.40;99.90;;;;;;5084718;28;20437;-59
2024/01/26 02:19:23;;;;;;;0.47;0.20;;;9.40;99.90;;;;;;5082657;28;20507;-59
2024/01/26 02:21:50;;;;;;;0.50;0.30;;;9.40;99.90;;;;;;5087623;28;20885;-59
2024/01/26 02:24:19;;;;;;;0.40;0.20;;;9.40;99.90;;;;;;5085448;28;20514;-59
2024/01/26 02:26:46;;;;;;;0.45;0.20;;;9.40;99.90;;;;;;5086720;28;20484;-59
2024/01/26 02:29:13;;;;;;;0.60;0.20;;;9.40;99.90;;;;;;5083520;28;20427;-61
2024/01/26 02:31:40;;;;;;;0.30;0.20;;;9.40;99.90;;;;;;5086850;28;20436;-59
2024/01/26 02:34:10;;;;;;;0.50;0.20;;;9.30;99.90;;;;;;5087053;28;20459;-59
2024/01/26 02:36:38;;;;;;;0.50;0.20;;;9.30;99.90;;;;;;5084141;28;20516;-59
2024/01/26 02:39:06;;;;;;;0.40;0.20;;;9.30;99.90;;;;;;5084293;28;20425;-59
2024/01/26 02:41:35;;;;;;;0.50;0.20;;;9.30;99.90;;;;;;5084689;28;20467;-59
2024/01/26 02:44:02;;;;;;;0.50;0.20;;;9.30;99.90;;;;;;5080962;28;20421;-59
2024/01/26 02:46:29;;;;;;;0.50;0.20;;;9.30;99.90;;;;;;5084926;28;20522;-59
2024/01/26 02:48:56;;;;;;;0.40;0.20;;;9.30;99.90;;;;;;5082680;28;20431;-60
2024/01/26 02:51:23;;;;;;;0.40;0.20;;;9.40;99.90;;;;;;5083461;28;20483;-60
2024/01/26 02:53:51;;;;;;;0.40;0.20;;;9.30;99.90;;;;;;5085315;28;20415;-60
2024/01/26 02:56:18;;;;;;;0.50;0.20;;;9.30;99.90;;;;;;5084663;28;20418;-59
2024/01/26 02:58:46;;;;;;;0.40;0.20;;;9.30;99.90;;;;;;5083044;28;20887;-60
2024/01/26 03:01:13;;;;;;;0.50;0.20;;;9.30;99.90;;;;;;5081426;28;20472;-60
2024/01/26 03:03:40;;;;;;;0.40;0.20;;;9.30;99.90;;;;;;5084087;28;20434;-60
2024/01/26 03:06:11;;;;;;;0.80;0.20;;;9.30;99.90;;;;;;5085664;28;20483;-59
2024/01/26 03:08:39;;;;;;;0.40;0.20;;;9.30;99.90;;;;;;5082961;28;20434;-60
2024/01/26 03:11:06;;;;;;;0.40;0.20;;;9.30;99.90;;;;;;5083693;28;20421;-60
2024/01/26 03:13:32;;;;;;;0.50;0.20;;;9.30;99.90;;;;;;5085072;28;20433;-60
2024/01/26 03:16:00;;;;;;;0.50;0.20;;;9.40;99.90;;;;;;5083935;28;20446;-60
2024/01/26 03:18:27;;;;;;;0.80;0.20;;;9.40;91.40;;;;;;5081437;28;20821;-59
2024/01/26 03:20:54;;;;;;;0.40;0.20;;;9.40;91.10;;;;;;5082171;28;20740;-60
2024/01/26 03:23:21;;;;;;;0.47;0.20;;;9.40;90.60;;;;;;5084380;28;20897;-60
2024/01/26 03:25:48;;;;;;;0.50;0.20;;;9.40;92.60;;;;;;5083472;28;21006;-60
2024/01/26 03:28:16;;;;;;;0.85;0.20;;;9.40;87.40;;;;;;5083014;28;20423;-61
2024/01/26 03:30:44;;;;;;;0.50;0.20;;;9.40;89.00;;;;;;5083527;28;20458;-60
2024/01/26 03:33:12;;;;;;;0.50;0.20;;;9.40;80.40;;;;;;5084018;28;20484;-61
2024/01/26 03:35:39;;;;;;;0.50;0.20;;;9.40;73.50;;;;;;5080252;28;20489;-58
2024/01/26 03:38:06;;;;;;;0.65;0.20;;;9.40;79.70;;;;;;5082400;28;20487;-59
2024/01/26 03:40:33;;;;;;;1.05;0.20;;;9.40;75.90;;;;;;5083942;28;20443;-59
2024/01/26 03:43:00;;;;;;;0.50;0.20;;;9.40;85.60;;;;;;5084048;28;20432;-59
2024/01/26 03:45:27;;;;;;;0.40;0.20;;;9.40;80.90;;;;;;5083929;28;20770;-59
2024/01/26 03:47:54;;;;;;;0.50;0.30;;;9.30;83.60;;;;;;5084008;28;20827;-58
2024/01/26 03:50:23;;;;;;;0.40;0.20;;;9.30;86.60;;;;;;5083757;28;20473;-58
2024/01/26 03:52:50;;;;;;;0.50;0.20;;;9.20;97.30;;;;;;5085336;28;20435;-59
2024/01/26 03:55:17;;;;;;;0.40;0.20;;;9.20;99.90;;;;;;5084129;28;20835;-58
2024/01/26 03:57:44;;;;;;;0.50;0.20;;;9.20;99.90;;;;;;5083074;28;20444;-59
2024/01/26 04:00:12;;;;;;;0.40;0.20;;;9.30;99.90;;;;;;5082497;28;20880;-58
2024/01/26 04:02:40;;;;;;;0.40;0.20;;;9.30;98.80;;;;;;5082440;28;20427;-60
2024/01/26 04:05:08;;;;;;;0.60;0.30;;;9.20;99.90;;;;;;5081127;28;20425;-59
2024/01/26 04:07:37;;;;;;;0.60;0.30;;;9.20;99.90;;;;;;5082851;28;20927;-59
2024/01/26 04:10:06;;;;;;;0.50;0.20;;;9.20;99.90;;;;;;5081935;28;20683;-60
2024/01/26 04:12:34;;;;;;;1.00;0.20;;;9.20;99.90;;;;;;5083647;28;20703;-59
2024/01/26 04:15:01;;;;;;;0.40;0.20;;;9.30;99.90;;;;;;5083598;28;20831;-59
2024/01/26 04:17:28;;;;;;;0.40;0.20;;;9.20;99.90;;;;;;5083191;28;20522;-60
2024/01/26 04:19:55;;;;;;;0.50;0.30;;;9.20;99.90;;;;;;5082657;28;20441;-60
2024/01/26 04:22:22;;;;;;;0.47;0.22;;;9.20;99.90;;;;;;5082892;28;20435;-60
2024/01/26 04:24:50;;;;;;;0.50;0.20;;;9.20;99.90;;;;;;5082528;28;20487;-59
2024/01/26 04:27:17;;;;;;;0.50;0.22;;;9.20;99.90;;;;;;5084047;28;20867;-60
2024/01/26 04:29:44;;;;;;;0.70;0.30;;;9.10;99.90;;;;;;5082006;28;20421;-59
2024/01/26 04:32:11;;;;;;;0.50;0.20;;;9.10;99.90;;;;;;5081468;28;20422;-60
2024/01/26 04:34:39;;;;;;;0.90;0.20;;;9.10;99.90;;;;;;5083277;28;20429;-60
2024/01/26 04:37:05;;;;;;;0.40;0.20;;;9.10;99.90;;;;;;5082594;28;20458;-59
2024/01/26 04:39:32;;;;;;;0.40;0.25;;;9.10;99.90;;;;;;5082361;28;20477;-59
2024/01/26 04:42:01;;;;;;;0.60;0.20;;;9.20;99.90;;;;;;5082967;28;20781;-60
2024/01/26 04:44:28;;;;;;;1.00;0.20;;;9.20;99.90;;;;;;5081975;28;20746;-60
2024/01/26 04:46:57;;;;;;;0.40;0.20;;;9.20;99.90;;;;;;5080231;28;21096;-60
2024/01/26 04:49:24;;;;;;;0.57;0.20;;;9.20;99.90;;;;;;5082167;28;20972;-60
2024/01/26 04:51:51;;;;;;;0.60;0.30;;;9.20;99.90;;;;;;5082839;28;20564;-59
2024/01/26 04:54:18;;;;;;;0.50;0.30;;;9.30;99.90;;;;;;5080888;28;20473;-60
2024/01/26 04:56:45;;;;;;;0.40;0.20;;;9.30;99.90;;;;;;5082470;28;20421;-60
2024/01/26 04:59:13;;;;;;;0.40;0.20;;;9.30;97.80;;;;;;5081966;28;20429;-60
2024/01/26 05:01:40;;;;;;;0.50;0.20;;;9.30;95.50;;;;;;5081170;28;20431;-59
2024/01/26 05:04:07;;;;;;;0.40;0.20;;;9.20;96.40;;;;;;5082398;28;20425;-59
2024/01/26 05:06:34;;;;;;;0.40;0.20;;;9.30;95.20;;;;;;5083773;28;20445;-59
2024/01/26 05:09:01;;;;;;;0.80;0.20;;;9.30;90.50;;;;;;5080411;28;20435;-60
2024/01/26 05:11:28;;;;;;;0.40;0.20;;;9.30;81.00;;;;;;5080315;28;20795;-60
2024/01/26 05:13:55;;;;;;;0.40;0.20;;;9.30;69.50;;;;;;5083491;28;20867;-60
2024/01/26 05:16:24;;;;;;;0.40;0.20;;;9.30;72.60;;;;;;5082177;28;20443;-59
2024/01/26 05:18:50;;;;;;;0.50;0.20;;;9.30;81.00;;;;;;5082361;28;20778;-59
2024/01/26 05:21:17;;;;;;;0.40;0.20;;;9.40;71.90;;;;;;5078929;28;20837;-60
2024/01/26 05:23:45;;;;;;;0.50;0.20;;;9.40;71.90;;;;;;5081460;28;20430;-59
2024/01/26 05:26:12;;;;;;;0.47;0.20;;;9.40;66.60;;;;;;5081291;28;20427;-60
2024/01/26 05:28:39;;;;;;;0.70;0.20;;;9.40;69.90;;;;;;5081763;28;20426;-61
2024/01/26 05:31:06;;;;;;;0.47;0.20;;;9.40;78.30;;;;;;5082423;28;20486;-60
2024/01/26 05:33:34;;;;;;;0.40;0.20;;;9.40;80.70;;;;;;5080725;28;20430;-60
2024/01/26 05:36:01;;;;;;;0.45;0.20;;;9.40;77.90;;;;;;5079279;28;20845;-60
2024/01/26 05:38:29;;;;;;;0.40;0.20;;;9.50;66.70;;;;;;5081447;28;20429;-60
2024/01/26 05:40:57;;;;;;;0.50;0.30;;;9.50;64.80;;;;;;5081270;28;20510;-60
2024/01/26 05:43:24;;;;;;;0.40;0.20;;;9.50;61.30;;;;;;5085013;28;20445;-60
2024/01/26 05:45:51;;;;;;;0.43;0.20;;;9.50;59.30;;;;;;5082150;28;20876;-60
2024/01/26 05:48:18;;;;;;;0.40;0.20;;;9.40;61.60;;;;;;5085564;28;21041;-60
2024/01/26 05:50:47;;;;;;;0.50;0.20;;;9.40;61.80;;;;;;5084815;28;20421;-60
2024/01/26 05:53:14;;;;;;;1.10;0.20;;;9.50;66.30;;;;;;5085342;28;20441;-60
2024/01/26 05:55:41;;;;;;;0.50;0.20;;;9.50;61.70;;;;;;5082068;28;20423;-60
2024/01/26 05:58:08;;;;;;;0.30;0.20;;;9.50;54.70;;;;;;5084717;28;20436;-60
2024/01/26 06:00:35;;;;;;;0.50;0.20;;;9.50;57.40;;;;;;5083597;28;20447;-61
2024/01/26 06:03:02;;;;;;;0.50;0.20;;;9.50;54.60;;;;;;5084407;28;20431;-60
2024/01/26 06:05:29;;;;;;;0.40;0.20;;;9.40;53.30;;;;;;5081654;28;20483;-61
2024/01/26 06:07:59;;;;;;;0.47;0.20;;;9.40;66.30;;;;;;5084414;28;20429;-60
2024/01/26 06:10:26;;;;;;;0.50;0.20;;;9.40;63.90;;;;;;5082235;28;20459;-61
2024/01/26 06:12:53;;;;;;;0.50;0.20;;;9.40;57.80;;;;;;5084270;28;20501;-60
2024/01/26 06:15:20;;;;;;;0.43;0.20;;;9.40;54.10;;;;;;5082597;28;21033;-61
2024/01/26 06:17:48;;;;;;;0.60;0.20;;;9.40;51.90;;;;;;5083393;28;20515;-60
2024/01/26 06:20:15;;;;;;;0.52;0.20;;;9.50;30.00;;;;;;5085221;28;20425;-58
2024/01/26 06:22:42;;;;;;;0.40;0.20;;;9.60;17.10;;;;;;5083093;28;20427;-58
2024/01/26 06:25:11;;;;;;;0.40;0.20;;;9.50;11.80;;;;;;5083135;28;20467;-59
2024/01/26 06:27:38;;;;;;;0.40;0.20;;;9.60;9.60;;;;;;5084586;28;20487;-60
2024/01/26 06:30:06;;;;;;;0.40;0.20;;;9.60;11.80;;;;;;5083426;28;20423;-59
2024/01/26 06:32:33;;;;;;;0.40;0.20;;;9.60;1.70;;;;;;5081230;28;20428;-59
2024/01/26 06:35:00;;;;;;;0.40;0.20;;;9.70;1.00;;;;;;5080557;28;20439;-59
2024/01/26 06:37:27;;;;;;;0.40;0.20;;;9.70;1.00;;;;;;5083546;28;20437;-60
2024/01/26 06:39:55;;;;;;;0.50;0.20;;;9.80;1.00;;;;;;5084252;28;20825;-59
2024/01/26 06:42:25;;;;;;;0.50;0.20;;;9.70;1.00;;;;;;5081947;28;20446;-59
2024/01/26 06:44:53;;;;;;;0.40;0.20;;;9.80;1.00;;;;;;5080886;28;20429;-59
2024/01/26 06:47:21;;;;;;;0.30;0.20;;;9.80;1.00;;;;;;5080050;28;20489;-59
2024/01/26 06:49:48;;;;;;;0.45;0.20;;;9.90;1.00;;;;;;5082939;28;20440;-59
2024/01/26 06:52:15;;;;;;;0.30;0.20;;;9.90;1.00;;;;;;5082393;28;21690;-59
2024/01/26 06:54:42;;;;;;;0.40;0.20;;;10.00;1.00;;;;;;5080306;28;20499;-59
2024/01/26 06:57:09;;;;;;;0.50;0.20;;;10.00;1.00;;;;;;5080374;28;20499;-59
2024/01/26 06:59:39;;;;;;;0.43;0.20;;;10.00;1.00;;;;;;5080451;28;20451;-59
2024/01/26 07:02:07;;;;;;;0.40;0.20;;;10.00;1.00;;;;;;5081534;28;20426;-60
2024/01/26 07:04:34;;;;;;;0.50;0.20;;;10.10;1.00;;;;;;5081063;28;20434;-60
2024/01/26 07:07:01;;;;;;;0.40;0.20;;;10.10;1.00;;;;;;5080363;28;20532;-60
2024/01/26 07:09:28;;;;;;;1.50;0.20;;;10.10;1.00;;;;;;5080466;28;20496;-59
2024/01/26 07:11:57;;;;;;;0.40;0.20;;;10.00;1.00;;;;;;5080803;28;20496;-59
2024/01/26 07:14:24;;;;;;;0.90;0.20;;;10.10;1.00;;;;;;5079409;28;20491;-59
2024/01/26 07:16:53;;;;;;;0.43;0.20;;;10.10;1.00;;;;;;5083139;28;20429;-60
2024/01/26 07:19:19;;;;;;;0.50;0.20;;;10.10;1.00;;;;;;5080499;28;20491;-60
2024/01/26 07:21:47;;;;;;;0.40;0.20;;;10.00;1.00;;;;;;5075060;28;20435;-60
2024/01/26 07:24:14;;;;;;;0.50;0.20;;;10.00;1.00;;;;;;5082868;28;20697;-60
2024/01/26 07:26:41;;;;;;;0.65;0.30;;;10.00;1.00;;;;;;5085005;28;20422;-60
2024/01/26 07:29:09;;;;;;;0.40;0.25;;;10.00;1.00;;;;;;5079183;28;20477;-60
2024/01/26 07:31:36;;;;;;;0.50;0.20;;;10.10;1.00;;;;;;5080201;28;20431;-60
2024/01/26 07:34:04;;;;;;;0.60;0.20;;;10.10;1.00;;;;;;5080257;28;20436;-60
2024/01/26 07:36:36;;;;;;;0.40;0.30;;;10.10;1.00;;;;;;5076760;28;20529;-58
2024/01/26 07:39:03;;;;;;;0.40;0.20;;;10.20;1.00;;;;;;5077133;28;20494;-56
2024/01/26 07:41:31;;;;;;;0.40;0.20;;;10.20;1.00;;;;;;5079919;28;20407;-58
2024/01/26 07:43:59;;;;;;;0.73;0.30;;;10.20;1.00;;;;;;5080157;28;20435;-58
2024/01/26 07:46:26;;;;;;;0.50;0.30;;;10.20;1.00;;;;;;5082066;28;20476;-58
2024/01/26 07:48:53;;;;;;;0.45;0.20;;;10.20;1.00;;;;;;5081145;28;20434;-58
2024/01/26 07:51:22;;;;;;;0.50;0.20;;;10.20;1.00;;;;;;5081698;28;20435;-59
2024/01/26 07:53:49;;;;;;;0.40;0.20;;;10.30;1.00;;;;;;5082555;28;20421;-59
2024/01/26 07:56:16;;;;;;;0.40;0.20;;;10.30;1.00;;;;;;5081313;28;20427;-59
2024/01/26 07:58:43;;;;;;;0.60;0.20;;;10.30;1.00;;;;;;5078246;28;20431;-58
2024/01/26 08:01:13;;;;;;;0.40;0.20;;;10.40;1.00;;;;;;5080515;28;20461;-58
2024/01/26 08:03:40;;;;;;;0.40;0.20;;;10.40;1.00;;;;;;5080016;28;20433;-58
2024/01/26 08:06:08;;;;;;;0.63;0.30;;;10.50;1.00;;;;;;5078937;28;20803;-58
2024/01/26 08:08:36;;;;;;;0.40;0.20;;;10.40;1.00;;;;;;5080239;28;20462;-58
2024/01/26 08:11:03;;;;;;;1.20;0.20;;;10.40;1.00;;;;;;5077297;28;20708;-57
2024/01/26 08:13:30;;;;;;;0.40;0.20;;;10.40;1.00;;;;;;5080023;28;20432;-56
2024/01/26 08:15:57;;;;;;;0.40;0.20;;;10.50;1.00;;;;;;5081746;28;20526;-58
2024/01/26 08:18:23;;;;;;;0.40;0.20;;;10.60;1.00;;;;;;5080487;28;20502;-58
2024/01/26 08:20:50;;;;;;;0.50;0.20;;;10.70;1.00;;;;;;5083305;28;20421;-58
2024/01/26 08:23:17;;;;;;;0.70;0.20;;;10.60;1.00;;;;;;5076787;28;20475;-58
2024/01/26 08:25:46;;;;;;;0.50;0.20;;;10.60;1.00;;;;;;5090131;28;20409;-58
2024/01/26 08:28:13;;;;;;;0.40;0.20;;;10.60;1.00;;;;;;5081116;28;20487;-57
2024/01/26 08:30:41;;;;;;;0.70;0.20;;;10.60;1.00;;;;;;5084784;28;20906;-58
2024/01/26 08:33:09;;;;;;;0.60;0.30;;;10.60;1.00;;;;;;5070627;28;20440;-59
2024/01/26 08:35:36;;;;;;;0.60;0.30;;;10.60;1.00;;;;;;5087116;28;20951;-59
2024/01/26 08:38:03;;;;;;;0.60;0.20;;;10.70;1.00;;;;;;5080882;28;20429;-58
2024/01/26 08:40:30;;;;;;;0.50;0.20;;;10.70;1.00;;;;;;5073722;28;20443;-59
2024/01/26 08:42:58;;;;;;;0.47;0.20;;;10.80;1.00;;;;;;5078208;28;20437;-59
2024/01/26 08:45:25;;;;;;;0.40;0.20;;;10.80;1.00;;;;;;5079185;28;20413;-59
2024/01/26 08:47:52;;;;;;;0.50;0.30;;;10.90;1.00;;;;;;5072148;28;20505;-59
2024/01/26 08:50:19;;;;;;;0.50;0.20;;;10.90;1.00;;;;;;5080475;28;20426;-59
2024/01/26 08:52:46;;;;;;;0.50;0.20;;;10.90;1.00;;;;;;5086228;28;20432;-59
2024/01/26 08:55:14;;;;;;;0.50;0.20;;;11.00;1.00;;;;;;5086052;28;20429;-58
2024/01/26 08:57:43;;;;;;;0.60;0.28;;;10.90;1.00;;;;;;5090558;28;20422;-58
2024/01/26 09:00:14;;;;;;;0.50;0.20;;;10.90;1.00;;;;;;5085345;28;20512;-58
2024/01/26 09:02:41;;;;;;;0.40;0.20;;;10.90;1.00;;;;;;5078810;28;20435;-58
2024/01/26 09:05:09;;;;;;;0.50;0.20;;;11.00;1.00;;;;;;5084203;28;20497;-58
2024/01/26 09:07:36;;;;;;;1.92;0.20;;;11.10;1.00;;;;;;5087998;28;20828;-58
2024/01/26 09:10:05;;;;;;;0.40;0.20;;;11.10;1.00;;;;;;5075312;28;20491;-58
2024/01/26 09:12:32;;;;;;;1.20;0.20;;;11.20;1.00;;;;;;5087026;28;20828;-58
2024/01/26 09:14:59;;;;;;;0.47;0.30;;;11.20;1.00;;;;;;5088997;28;20422;-58
2024/01/26 09:17:28;;;;;;;0.50;0.20;;;11.30;1.00;;;;;;5091731;28;20433;-59
2024/01/26 09:19:55;;;;;;;0.65;0.20;;;11.30;1.00;;;;;;5091982;28;20441;-57
2024/01/26 09:22:23;;;;;;;0.50;0.20;;;11.40;99.90;;;;;;5093017;28;20432;-58
2024/01/26 09:24:50;;;;;;;0.40;0.20;;;11.40;99.90;;;;;;5088263;28;20426;-58
2024/01/26 09:27:17;;;;;;;0.50;0.20;;;11.40;99.90;;;;;;5088356;28;20423;-58
2024/01/26 09:29:44;;;;;;;0.40;0.20;;;11.40;99.90;;;;;;5085439;28;20435;-59
2024/01/26 09:32:11;;;;;;;0.40;0.20;;;11.50;99.90;;;;;;5084351;28;20971;-58
2024/01/26 09:34:39;;;;;;;0.40;0.20;;;11.50;99.90;;;;;;5094702;28;20806;-59
2024/01/26 09:37:06;;;;;;;0.50;0.20;;;11.50;99.90;;;;;;5093169;28;20422;-58
2024/01/26 09:39:33;;;;;;;0.50;0.20;;;11.50;99.90;;;;;;5094736;28;20438;-57
2024/01/26 09:42:05;;;;;;;0.60;0.30;;;11.60;99.90;;;;;;5091393;28;21170;-57
2024/01/26 09:44:32;;;;;;;0.50;0.20;;;11.60;77.00;;;;;;5092434;28;20479;-58
2024/01/26 09:47:03;;;;;;;1.20;0.20;;;11.60;1.00;;;;;;5093155;28;20437;-59
2024/01/26 09:49:30;;;;;;;0.60;0.30;;;11.70;83.00;;;;;;5094585;28;20678;-58
2024/01/26 09:51:59;;;;;;;0.63;0.30;;;11.80;1.00;;;;;;5092704;28;20501;-59
2024/01/26 09:54:27;;;;;;;0.60;0.30;;;11.80;1.00;;;;;;5093973;28;20823;-58
2024/01/26 09:56:56;;;;;;;0.90;0.40;;;11.80;1.00;;;;;;5092415;28;20450;-58
2024/01/26 09:59:23;;;;;;;0.77;0.40;;;11.80;1.00;;;;;;5093535;28;20448;-59
2024/01/26 10:01:51;;;;;;;1.00;0.40;;;11.70;1.00;;;;;;5084072;28;20855;-61
2024/01/26 10:04:18;;;;;;;0.50;0.30;;;11.80;1.00;;;;;;5071713;28;20432;-59
2024/01/26 10:06:46;;;;;;;0.60;0.30;;;11.80;1.00;;;;;;5072379;28;20778;-59
2024/01/26 10:09:15;;;;;;;2.17;0.30;;;11.90;1.00;;;;;;5079171;28;20461;-59
2024/01/26 10:11:42;;;;;;;0.73;0.40;;;11.90;1.00;;;;;;5089659;28;20494;-59
2024/01/26 10:14:09;;;;;;;0.80;0.40;;;11.90;1.00;;;;;;5093670;28;20434;-59
2024/01/26 10:16:36;;;;;;;0.55;0.30;;;11.90;1.00;;;;;;5085481;28;20445;-59
2024/01/26 10:19:03;;;;;;;0.65;0.30;;;12.00;1.00;;;;;;5088281;28;20426;-59
2024/01/26 10:21:29;;;;;;;0.50;0.30;;;12.10;99.90;;;;;;5092607;28;20414;-59
2024/01/26 10:23:56;;;;;;;0.50;0.30;;;12.20;99.90;;;;;;5093044;28;20422;-59
2024/01/26 10:26:28;;;;;;;0.50;0.20;;;12.20;1.00;;;;;;5093082;28;20689;-59
2024/01/26 10:28:57;;;;;;;1.30;0.27;;;12.20;1.00;;;;;;5092414;28;20536;-59
2024/01/26 10:31:26;;;;;;;0.70;0.30;;;12.30;1.00;;;;;;5094178;28;20960;-57
2024/01/26 10:33:56;;;;;;;0.50;0.20;;;12.30;99.90;;;;;;5087052;28;20450;-60
2024/01/26 10:36:26;;;;;;;1.50;0.40;;;12.30;99.90;;;;;;5081698;28;20461;-60
2024/01/26 10:38:54;;;;;;;0.70;0.40;;;12.40;99.90;;;;;;5084200;28;20438;-59
2024/01/26 10:41:22;;;;;;;0.60;0.32;;;12.40;13.70;;;;;;5084557;28;20442;-59
2024/01/26 10:43:55;;;;;;;0.90;0.40;;;12.50;1.00;;;;;;5083604;28;20662;-60
2024/01/26 10:46:22;;;;;;;0.75;0.40;;;12.40;1.00;;;;;;5084169;28;20444;-58
2024/01/26 10:48:51;;;;;;;0.70;0.40;;;12.40;99.90;;;;;;5088608;28;20433;-58
2024/01/26 10:51:19;;;;;;;1.27;0.40;;;12.40;1.00;;;;;;5088090;28;20434;-58
2024/01/26 10:53:47;;;;;;;1.20;0.30;;;12.40;1.00;;;;;;5091490;28;20438;-59
2024/01/26 10:56:14;;;;;;;0.80;0.22;;;12.40;1.00;;;;;;5086968;28;20465;-58
2024/01/26 10:58:41;;;;;;;0.90;0.30;;;12.50;1.00;;;;;;5087326;28;20495;-58
2024/01/26 11:01:11;;;;;;;0.70;0.30;;;12.40;1.00;;;;;;5085892;28;20506;-60
2024/01/26 11:03:38;;;;;;;0.80;0.30;;;12.40;1.00;;;;;;5084185;28;20416;-58
2024/01/26 11:06:08;;;;;;;0.60;0.35;;;12.40;92.60;;;;;;5079794;28;20523;-59
2024/01/26 11:08:36;;;;;;;0.40;0.20;;;12.50;1.00;;;;;;5091839;28;20441;-58
2024/01/26 11:11:03;;;;;;;0.50;0.40;;;12.50;1.00;;;;;;5083340;28;20438;-58
2024/01/26 11:13:37;;;;;;;0.70;0.40;;;12.50;1.00;;;;;;5087023;28;20438;-58
2024/01/26 11:16:05;;;;;;;0.60;0.30;;;12.60;1.00;;;;;;5085749;28;20448;-60
2024/01/26 11:18:36;;;;;;;0.60;0.35;;;12.60;99.90;;;;;;5083566;28;20430;-60
2024/01/26 11:21:04;;;;;;;0.52;0.30;;;12.60;1.00;;;;;;5086722;28;20422;-57
2024/01/26 11:23:39;;;;;;;0.60;0.30;;;12.60;1.00;;;;;;5086560;28;21138;-58
2024/01/26 11:26:13;;;;;;;0.60;0.30;;;12.60;1.00;;;;;;5083892;28;20798;-61
2024/01/26 11:28:40;;;;;;;0.57;0.30;;;12.70;1.00;;;;;;5086630;28;20461;-58
2024/01/26 11:31:07;;;;;;;0.88;0.30;;;12.80;1.00;;;;;;5077016;28;20447;-58
2024/01/26 11:33:37;;;;;;;0.60;0.30;;;12.80;99.90;;;;;;5074097;28;20857;-58
2024/01/26 11:36:05;;;;;;;0.70;0.40;;;12.90;1.00;;;;;;5079961;28;20439;-59
2024/01/26 11:38:33;;;;;;;0.60;0.30;;;12.90;1.00;;;;;;5070393;28;20480;-59
2024/01/26 11:41:01;;;;;;;0.70;0.30;;;12.80;1.00;;;;;;5079489;28;20514;-59
2024/01/26 11:43:29;;;;;;;0.70;0.40;;;12.80;1.00;;;;;;5081155;28;20431;-59
2024/01/26 11:45:57;;;;;;;0.50;0.30;;;12.90;1.00;;;;;;5086799;28;20816;-59
2024/01/26 11:48:25;;;;;;;0.60;0.40;;;12.90;1.00;;;;;;5077142;28;21123;-59
2024/01/26 11:50:53;;;;;;;0.52;0.38;;;13.00;99.90;;;;;;5081578;28;20422;-59
2024/01/26 11:53:21;;;;;;;0.80;0.30;;;13.10;99.90;;;;;;5076252;28;20439;-60
2024/01/26 11:55:49;;;;;;;0.60;0.30;;;13.00;99.90;;;;;;5081694;28;20437;-59
2024/01/26 11:58:16;;;;;;;0.50;0.30;;;13.00;1.00;;;;;;5074270;28;20898;-60
2024/01/26 12:00:43;;;;;;;0.50;0.22;;;12.90;1.00;;;;;;5088212;28;20434;-60
2024/01/26 12:03:13;;;;;;;0.55;0.25;;;12.80;99.90;;;;;;5085423;28;21072;-59
2024/01/26 12:05:40;;;;;;;0.40;0.20;;;12.80;1.00;;;;;;5084526;28;20422;-60
2024/01/26 12:08:10;;;;;;;0.50;0.20;;;12.80;1.00;;;;;;5084555;28;20507;-59
2024/01/26 12:10:38;;;;;;;0.50;0.25;;;12.60;23.60;;;;;;5081441;28;20491;-59
2024/01/26 12:13:05;;;;;;;0.63;0.40;;;12.80;1.00;;;;;;5081049;28;20488;-59
2024/01/26 12:15:38;;;;;;;0.70;0.40;;;12.80;1.00;;;;;;5076479;28;20473;-59
2024/01/26 12:18:08;;;;;;;0.80;0.30;;;12.80;99.90;;;;;;5076176;28;20752;-59
2024/01/26 12:20:35;;;;;;;0.50;0.20;;;12.80;1.00;;;;;;5081873;28;20505;-60
2024/01/26 12:23:04;;;;;;;0.55;0.30;;;12.80;1.00;;;;;;5080061;28;20534;-59
2024/01/26 12:25:32;;;;;;;0.45;0.30;;;12.80;1.00;;;;;;5076251;28;20436;-59
2024/01/26 12:28:02;;;;;;;0.50;0.30;;;12.80;17.20;;;;;;5080841;28;20445;-59
2024/01/26 12:30:30;;;;;;;0.60;0.25;;;12.80;1.00;;;;;;5088295;28;20510;-60
2024/01/26 12:33:05;;;;;;;1.10;0.20;;;12.80;1.00;;;;;;5088722;28;20695;-60
2024/01/26 12:35:34;;;;;;;0.70;0.20;;;12.80;99.90;;;;;;5081341;28;20449;-60
2024/01/26 12:38:01;;;;;;;0.40;0.20;;;12.70;99.90;;;;;;5087103;28;20506;-60
2024/01/26 12:40:28;;;;;;;0.90;0.60;;;12.70;99.90;;;;;;5088564;28;20495;-59
2024/01/26 12:42:56;;;;;;;0.60;0.30;;;12.60;1.00;;;;;;5086150;28;20932;-60
2024/01/26 12:45:23;;;;;;;0.80;0.20;;;12.60;1.00;;;;;;5082561;28;20418;-59
2024/01/26 12:47:50;;;;;;;0.40;0.20;;;12.70;1.00;;;;;;5088966;28;20433;-59
2024/01/26 12:50:17;;;;;;;0.65;0.20;;;12.70;1.00;;;;;;5089096;28;20559;-60
2024/01/26 12:52:45;;;;;;;0.40;0.20;;;12.80;1.00;;;;;;5090464;28;20999;-59
2024/01/26 12:55:12;;;;;;;0.50;0.20;;;12.80;99.90;;;;;;5089341;28;20445;-60
2024/01/26 12:57:40;;;;;;;0.60;0.30;;;12.80;99.90;;;;;;5085688;28;21145;-59